Time;durP1;ratioP1;P1;durP2;ratioP2;P2;SDS_P1;SDS_P2;PMS_P1;PMS_P2;Temp;Humidity;BMP_temperature;BMP_pressure;BME280_temperature;BME280_humidity;BME280_pressure;Samples;Min_cycle;Max_cycle;Signal;HPM_P1;HPM_P2
2023/07/06 00:02:03;;;;;;;8.82;7.20;;;;;;;19.93;66.15;94918.06;5069664;28;20102;-80
2023/07/06 00:17:26;;;;;;;9.38;7.00;;;;;;;20.64;64.05;94913.28;5085015;27;21264;-77
2023/07/06 00:19:51;;;;;;;8.20;6.93;;;;;;;20.63;64.29;94914.56;5062531;28;20048;-77
2023/07/06 00:22:18;;;;;;;7.18;6.15;;;;;;;20.63;64.33;94909.75;5061120;28;20025;-77
2023/07/06 00:24:46;;;;;;;8.23;6.30;;;;;;;20.61;64.44;94906.69;5062541;28;20032;-77
2023/07/06 00:27:15;;;;;;;7.78;5.88;;;;;;;20.66;64.33;94913.56;5060968;28;20096;-77
2023/07/06 00:29:56;;;;;;;7.40;6.25;;;;;;;20.65;64.43;94906.47;5046141;28;20051;-77
2023/07/06 00:32:28;;;;;;;9.50;6.20;;;;;;;20.72;64.53;94900.38;5062140;28;20133;-78
2023/07/06 00:34:54;;;;;;;9.80;6.60;;;;;;;20.74;64.80;94903.41;5044621;28;20036;-77
2023/07/06 00:37:21;;;;;;;7.93;6.40;;;;;;;20.73;64.85;94893.53;5045789;28;20032;-76
2023/07/06 00:39:50;;;;;;;8.07;6.88;;;;;;;20.79;64.61;94893.53;5060701;28;20395;-77
2023/07/06 00:42:17;;;;;;;9.48;6.75;;;;;;;20.79;64.49;94901.91;5062476;28;20044;-77
2023/07/06 00:44:57;;;;;;;10.02;7.30;;;;;;;20.81;64.62;94907.75;5043629;28;20141;-77
2023/07/06 00:47:30;;;;;;;7.70;6.70;;;;;;;20.81;64.39;94899.38;5061924;28;20032;-77
2023/07/06 00:49:57;;;;;;;7.95;6.75;;;;;;;20.81;64.59;94902.16;5045275;28;20172;-78
2023/07/06 00:52:23;;;;;;;7.82;6.78;;;;;;;20.82;64.47;94904.47;5044453;28;20107;-77
2023/07/06 00:54:48;;;;;;;11.02;6.90;;;;;;;20.82;64.38;94898.88;5067191;28;20115;-77
2023/07/06 00:57:17;;;;;;;8.23;6.43;;;;;;;20.82;64.12;94895.31;5065052;28;20387;-77
2023/07/06 00:59:43;;;;;;;8.68;7.63;;;;;;;20.80;64.21;94895.06;5084914;28;20028;-78
2023/07/06 01:02:13;;;;;;;7.97;6.45;;;;;;;20.80;63.97;94884.63;5082074;28;20047;-78
2023/07/06 01:04:39;;;;;;;9.43;6.55;;;;;;;20.83;64.22;94891.25;5067154;28;20044;-78
2023/07/06 01:07:06;;;;;;;8.38;7.47;;;;;;;20.81;64.33;94886.16;5084327;28;20025;-78
2023/07/06 01:09:32;;;;;;;9.55;7.32;;;;;;;20.77;64.35;94873.72;5083774;28;20119;-78
2023/07/06 01:11:58;;;;;;;11.57;7.20;;;;;;;20.84;64.69;94884.41;5084485;28;20060;-78
2023/07/06 01:14:26;;;;;;;10.00;7.13;;;;;;;20.82;64.90;94882.13;5081762;28;20446;-78
2023/07/06 01:16:53;;;;;;;11.07;6.88;;;;;;;20.83;64.65;94886.44;5075946;28;20040;-78
2023/07/06 01:19:30;;;;;;;8.45;7.07;;;;;;;20.86;64.71;94881.84;5069407;28;20111;-76
2023/07/06 01:22:26;;;;;;;7.88;7.05;;;;;;;20.80;64.98;94867.88;5070788;28;20056;-78
2023/07/06 01:24:57;;;;;;;10.65;7.22;;;;;;;20.85;65.17;94875.50;5070578;28;20032;-78
2023/07/06 01:27:42;;;;;;;13.32;7.15;;;;;;;20.88;65.07;94877.31;5069395;28;20028;-78
2023/07/06 01:30:48;;;;;;;7.82;7.05;;;;;;;20.86;64.96;94881.84;5070382;28;20020;-79
2023/07/06 01:33:17;;;;;;;9.90;6.97;;;;;;;20.86;64.93;94882.63;5069187;28;20043;-78
2023/07/06 01:35:46;;;;;;;9.32;7.47;;;;;;;20.86;64.77;94873.47;5067595;28;20032;-77
2023/07/06 01:38:12;;;;;;;10.52;7.60;;;;;;;20.84;65.08;94873.97;5070418;28;20020;-78
2023/07/06 01:40:38;;;;;;;9.57;7.03;;;;;;;20.91;64.58;94876.28;5067585;28;20028;-78
2023/07/06 01:43:03;;;;;;;8.73;7.47;;;;;;;20.86;64.31;94859.50;5070471;28;20410;-78
2023/07/06 01:45:29;;;;;;;8.65;6.78;;;;;;;20.84;64.40;94873.22;5067552;28;20104;-78
2023/07/06 01:47:57;;;;;;;10.50;7.78;;;;;;;20.81;64.20;94874.97;5068973;28;20398;-78
2023/07/06 01:50:31;;;;;;;8.50;6.68;;;;;;;20.76;64.21;94877.75;5068413;28;20098;-77
2023/07/06 01:53:09;;;;;;;8.90;6.55;;;;;;;20.79;63.81;94880.31;5067527;28;20019;-77
2023/07/06 01:55:40;;;;;;;9.70;6.97;;;;;;;20.72;63.85;94875.25;5068880;28;20043;-78
2023/07/06 01:58:32;;;;;;;8.43;6.97;;;;;;;20.71;64.30;94875.75;5067002;28;20505;-77
2023/07/06 02:01:25;;;;;;;9.70;7.20;;;;;;;20.70;64.08;94886.13;5068421;28;20482;-77
2023/07/06 02:03:51;;;;;;;7.78;6.97;;;;;;;20.66;64.24;94889.19;5068724;28;20478;-77
2023/07/06 02:06:17;;;;;;;11.32;6.90;;;;;;;20.65;63.96;94879.28;5066864;28;20036;-76
2023/07/06 02:08:42;;;;;;;10.50;6.95;;;;;;;20.63;63.89;94878.25;5069988;28;20025;-77
2023/07/06 02:11:13;;;;;;;11.32;7.10;;;;;;;20.58;64.22;94873.41;5068244;28;20469;-78
2023/07/06 02:13:39;;;;;;;11.25;6.70;;;;;;;20.54;63.94;94876.47;5070036;28;20033;-78
2023/07/06 02:16:05;;;;;;;9.07;6.70;;;;;;;20.47;63.78;94871.34;5068306;28;20433;-78
2023/07/06 02:18:34;;;;;;;8.13;6.75;;;;;;;20.50;63.59;94883.56;5069194;28;20117;-78
2023/07/06 02:21:03;;;;;;;9.82;6.90;;;;;;;20.45;63.63;94871.06;5069975;28;20035;-78
2023/07/06 02:23:29;;;;;;;9.43;6.70;;;;;;;20.43;63.60;94876.41;5068150;28;20059;-79
2023/07/06 02:25:55;;;;;;;9.38;6.78;;;;;;;20.41;63.97;94871.34;5069753;28;20027;-78
2023/07/06 02:28:21;;;;;;;8.95;6.35;;;;;;;20.38;63.90;94874.38;5066682;28;20013;-78
2023/07/06 02:30:52;;;;;;;9.43;6.30;;;;;;;20.36;64.04;94872.09;5069615;28;20035;-78
2023/07/06 02:33:18;;;;;;;7.85;6.70;;;;;;;20.31;63.92;94872.81;5068213;28;20040;-80
2023/07/06 02:35:47;;;;;;;13.80;7.47;;;;;;;20.31;63.91;94872.06;5069147;28;20016;-77
2023/07/06 02:38:17;;;;;;;10.02;6.43;;;;;;;20.28;64.06;94861.88;5068870;28;20056;-77
2023/07/06 02:40:43;;;;;;;11.75;7.13;;;;;;;20.24;64.40;94853.75;5067982;28;20030;-77
2023/07/06 02:43:08;;;;;;;9.40;6.47;;;;;;;20.21;64.14;94865.94;5068843;28;20020;-78
2023/07/06 02:45:35;;;;;;;10.82;6.90;;;;;;;20.25;64.55;94858.09;5067703;28;20031;-77
2023/07/06 02:48:00;;;;;;;11.88;7.05;;;;;;;20.24;64.31;94861.38;5067810;28;20028;-78
2023/07/06 02:50:27;;;;;;;9.73;7.10;;;;;;;20.21;64.44;94854.00;5066187;28;20029;-77
2023/07/06 02:52:52;;;;;;;10.48;6.47;;;;;;;20.20;64.66;94856.03;5069162;28;20024;-78
2023/07/06 02:55:18;;;;;;;9.50;6.57;;;;;;;20.21;64.82;94859.59;5066526;28;20509;-78
2023/07/06 02:57:43;;;;;;;12.77;7.35;;;;;;;20.18;64.61;94864.13;5068444;28;20422;-78
2023/07/06 03:00:12;;;;;;;9.88;7.07;;;;;;;20.18;64.81;94866.91;5068706;28;20437;-77
2023/07/06 03:02:38;;;;;;;13.40;7.10;;;;;;;20.17;64.47;94868.94;5066205;28;20379;-77
2023/07/06 03:05:04;;;;;;;10.02;6.85;;;;;;;20.20;64.44;94866.44;5068775;28;20308;-79
2023/07/06 03:07:34;;;;;;;11.63;6.90;;;;;;;20.11;64.71;94847.88;5067437;28;20039;-77
2023/07/06 03:10:00;;;;;;;8.75;6.68;;;;;;;20.19;64.83;94862.13;5068632;28;20055;-77
2023/07/06 03:12:25;;;;;;;8.30;6.03;;;;;;;20.17;64.57;94851.44;5067122;28;20052;-78
2023/07/06 03:14:51;;;;;;;12.13;7.10;;;;;;;20.17;64.53;94854.25;5068394;28;20052;-78
2023/07/06 03:17:16;;;;;;;8.68;7.05;;;;;;;20.20;64.50;94856.03;5067937;28;20035;-78
2023/07/06 03:19:41;;;;;;;11.38;7.13;;;;;;;20.22;64.72;94853.50;5067280;28;20017;-77
2023/07/06 03:22:07;;;;;;;9.40;7.45;;;;;;;20.20;64.83;94853.25;5068367;28;20486;-77
2023/07/06 03:24:33;;;;;;;9.43;7.60;;;;;;;20.26;64.45;94851.25;5067201;28;20116;-77
2023/07/06 03:27:01;;;;;;;9.40;6.90;;;;;;;20.26;64.43;94851.25;5068381;28;20021;-77
2023/07/06 03:29:26;;;;;;;9.25;6.25;;;;;;;20.23;64.64;94846.66;5066750;28;20032;-77
2023/07/06 03:31:52;;;;;;;11.48;6.95;;;;;;;20.27;64.17;94838.03;5068122;28;20028;-76
2023/07/06 03:34:18;;;;;;;9.20;6.60;;;;;;;20.28;64.65;94851.50;5067307;28;20028;-77
2023/07/06 03:36:44;;;;;;;8.43;6.97;;;;;;;20.27;64.38;94847.19;5067485;28;20027;-77
2023/07/06 03:39:12;;;;;;;9.50;6.90;;;;;;;20.29;64.53;94861.38;5066529;28;20403;-77
2023/07/06 03:41:39;;;;;;;10.30;6.82;;;;;;;20.31;64.32;94855.31;5066461;28;20504;-78
2023/07/06 03:44:05;;;;;;;7.93;7.07;;;;;;;20.24;64.32;94847.41;5068359;28;20029;-77
2023/07/06 03:46:33;;;;;;;10.32;6.78;;;;;;;20.26;64.33;94850.47;5066194;28;20139;-79
2023/07/06 03:49:01;;;;;;;12.05;7.43;;;;;;;20.30;64.42;94850.97;5067968;28;20032;-77
2023/07/06 03:51:27;;;;;;;12.07;7.35;;;;;;;20.32;64.47;94845.66;5068941;28;20240;-78
2023/07/06 03:53:52;;;;;;;9.70;7.90;;;;;;;20.36;64.39;94854.56;5072704;28;20032;-78
2023/07/06 03:56:18;;;;;;;14.40;7.60;;;;;;;20.37;64.26;94851.28;5071618;28;20474;-77
2023/07/06 03:58:44;;;;;;;8.23;7.00;;;;;;;20.39;64.33;94854.31;5067543;28;20506;-78
2023/07/06 04:01:10;;;;;;;15.73;7.30;;;;;;;20.45;64.57;94850.78;5068042;28;20036;-76
2023/07/06 04:03:35;;;;;;;13.70;7.50;;;;;;;20.45;64.50;94851.53;5067348;28;20358;-77
2023/07/06 04:06:03;;;;;;;11.20;7.07;;;;;;;20.48;64.43;94856.16;5068230;28;20564;-78
2023/07/06 04:08:28;;;;;;;10.32;7.28;;;;;;;20.52;64.15;94855.88;5066417;28;20024;-76
2023/07/06 04:10:54;;;;;;;9.05;7.53;;;;;;;20.56;64.14;94856.41;5066857;28;20102;-77
2023/07/06 04:13:19;;;;;;;9.95;7.07;;;;;;;20.60;63.83;94856.94;5067171;28;20472;-78
2023/07/06 04:15:47;;;;;;;12.30;7.30;;;;;;;20.59;64.00;94861.75;5066710;28;20131;-76
2023/07/06 04:18:15;;;;;;;10.25;6.45;;;;;;;20.67;64.02;94859.22;5067762;28;20142;-78
2023/07/06 04:20:41;;;;;;;10.98;7.07;;;;;;;20.72;64.10;94866.09;5066291;28;20032;-78
2023/07/06 04:23:09;;;;;;;12.38;7.22;;;;;;;20.75;63.66;94863.03;5066434;28;20464;-78
2023/07/06 04:25:35;;;;;;;11.75;7.20;;;;;;;20.78;63.72;94852.91;5066304;28;20060;-78
2023/07/06 04:28:05;;;;;;;14.07;7.22;;;;;;;20.82;63.69;94856.97;5066423;28;20112;-77
2023/07/06 04:30:33;;;;;;;12.35;7.25;;;;;;;20.84;63.55;94860.00;5066435;28;20083;-78
2023/07/06 04:32:59;;;;;;;9.73;7.25;;;;;;;20.84;63.51;94860.00;5067144;28;20516;-78
2023/07/06 04:35:26;;;;;;;9.95;7.40;;;;;;;20.84;63.00;94848.09;5067376;28;20482;-79
2023/07/06 04:37:53;;;;;;;9.23;7.00;;;;;;;20.90;63.21;94851.63;5066480;28;20199;-77
2023/07/06 04:40:19;;;;;;;11.95;7.10;;;;;;;20.89;63.72;94850.88;5067486;28;20067;-77
2023/07/06 04:42:48;;;;;;;9.85;7.25;;;;;;;20.94;63.39;94852.91;5065813;28;20095;-79
2023/07/06 04:45:15;;;;;;;11.05;7.38;;;;;;;20.95;63.17;94843.25;5067454;28;20140;-77
2023/07/06 04:47:42;;;;;;;8.38;6.72;;;;;;;20.97;63.46;94844.78;5064708;28;20017;-76
2023/07/06 04:50:09;;;;;;;12.20;7.40;;;;;;;21.00;63.53;94850.13;5067417;28;20414;-77
2023/07/06 04:52:37;;;;;;;10.32;7.50;;;;;;;21.05;62.96;94845.81;5069662;28;20103;-77
2023/07/06 04:55:05;;;;;;;9.18;6.93;;;;;;;21.03;63.17;94849.09;5069025;28;20032;-77
2023/07/06 04:57:31;;;;;;;11.30;7.45;;;;;;;21.09;63.08;94851.91;5071255;28;20478;-77
2023/07/06 04:59:56;;;;;;;11.80;7.70;;;;;;;21.12;63.09;94862.81;5069776;28;20029;-77
2023/07/06 05:02:22;;;;;;;9.32;7.13;;;;;;;21.18;63.07;94860.03;5069751;28;20158;-76
2023/07/06 05:04:49;;;;;;;9.88;7.93;;;;;;;21.21;63.21;94864.59;5069728;28;20027;-79
2023/07/06 05:07:15;;;;;;;9.98;7.45;;;;;;;21.24;63.24;94869.19;5070540;28;20052;-79
2023/07/06 05:09:40;;;;;;;9.48;7.40;;;;;;;21.34;62.54;94872.53;5069897;28;20056;-77
2023/07/06 05:12:07;;;;;;;10.63;7.32;;;;;;;21.27;62.77;94856.22;5068960;28;20020;-77
2023/07/06 05:14:36;;;;;;;7.40;6.40;;;;;;;21.37;62.51;94872.25;5070147;28;20573;-79
2023/07/06 05:17:01;;;;;;;9.23;6.57;;;;;;;21.33;62.48;94876.56;5068916;28;20380;-77
2023/07/06 05:19:27;;;;;;;9.05;6.20;;;;;;;21.34;62.60;94878.09;5070574;28;20300;-77
2023/07/06 05:21:57;;;;;;;8.93;6.43;;;;;;;21.36;62.48;94881.91;5069213;28;20532;-77
2023/07/06 05:24:24;;;;;;;8.90;6.57;;;;;;;21.20;62.50;94849.84;5069382;28;20112;-78
2023/07/06 05:26:49;;;;;;;7.28;6.30;;;;;;;21.36;62.67;94881.91;5067861;28;20252;-78
2023/07/06 05:29:15;;;;;;;7.95;6.43;;;;;;;21.39;62.48;94882.91;5070050;28;20666;-78
2023/07/06 05:31:42;;;;;;;7.10;6.40;;;;;;;21.37;62.33;94886.22;5070205;28;20085;-78
2023/07/06 05:34:08;;;;;;;7.63;6.25;;;;;;;21.41;62.62;94881.16;5069576;28;20016;-76
2023/07/06 05:36:36;;;;;;;11.75;6.80;;;;;;;21.41;62.97;94885.97;5070766;28;20083;-76
2023/07/06 05:39:05;;;;;;;9.57;7.75;;;;;;;21.42;62.91;94890.28;5069146;28;20032;-77
2023/07/06 05:41:31;;;;;;;8.63;6.95;;;;;;;21.37;62.88;94882.66;5070307;28;20456;-78
2023/07/06 05:43:56;;;;;;;10.77;6.50;;;;;;;21.42;63.09;94891.06;5068788;28;20033;-78
2023/07/06 05:46:23;;;;;;;8.93;6.53;;;;;;;21.43;63.22;94894.59;5070272;28;20029;-79
2023/07/06 05:48:49;;;;;;;9.98;7.65;;;;;;;21.47;63.35;94893.09;5068120;28;20021;-79
2023/07/06 05:51:15;;;;;;;11.32;7.57;;;;;;;21.46;63.20;94890.81;5069688;28;20081;-77
2023/07/06 05:53:40;;;;;;;12.55;7.45;;;;;;;21.53;62.95;94895.13;5068748;28;20024;-79
2023/07/06 05:56:06;;;;;;;11.30;6.80;;;;;;;21.56;63.13;94891.28;5068624;28;20025;-78
2023/07/06 05:58:31;;;;;;;9.68;6.97;;;;;;;21.59;63.13;94893.84;5070032;28;20020;-78
2023/07/06 06:00:59;;;;;;;7.28;6.57;;;;;;;21.67;62.67;94894.81;5068227;28;20035;-77
2023/07/06 06:03:25;;;;;;;9.90;6.60;;;;;;;21.65;62.84;94882.63;5069613;28;20111;-78
2023/07/06 06:05:52;;;;;;;7.70;5.78;;;;;;;21.76;61.97;94888.22;5068300;28;20104;-79
2023/07/06 06:08:18;;;;;;;7.55;5.85;;;;;;;21.81;61.65;94893.03;5069837;28;20502;-80
2023/07/06 06:10:44;;;;;;;7.72;5.70;;;;;;;21.79;61.84;94889.22;5069860;28;20046;-77
2023/07/06 06:13:10;;;;;;;8.85;6.00;;;;;;;21.91;61.38;94897.09;5068654;28;20021;-78
2023/07/06 06:15:36;;;;;;;6.65;5.88;;;;;;;21.97;61.38;94897.06;5069591;28;20107;-77
2023/07/06 06:18:02;;;;;;;8.63;7.00;;;;;;;22.05;61.43;94894.50;5066586;28;20020;-77
2023/07/06 06:20:28;;;;;;;8.55;5.68;;;;;;;22.11;61.26;94898.81;5069667;28;20550;-76
2023/07/06 06:22:53;;;;;;;7.07;5.75;;;;;;;22.16;60.70;94886.09;5067015;28;20156;-78
2023/07/06 06:25:19;;;;;;;8.55;6.18;;;;;;;22.25;60.69;94891.38;5069562;28;20111;-78
2023/07/06 06:27:46;;;;;;;9.45;6.53;;;;;;;22.33;60.31;94886.03;5068425;28;20074;-77
2023/07/06 06:30:14;;;;;;;8.95;6.45;;;;;;;22.37;60.22;94892.13;5068698;28;20044;-79
2023/07/06 06:32:40;;;;;;;6.30;5.70;;;;;;;22.43;60.27;94896.44;5068991;28;20032;-78
2023/07/06 06:35:22;;;;;;;7.60;5.85;;;;;;;22.50;59.73;94879.06;5049661;28;20020;-78
2023/07/06 06:37:48;;;;;;;9.98;6.25;;;;;;;22.67;59.08;94884.59;5069154;28;20032;-78
2023/07/06 06:40:14;;;;;;;14.18;6.53;;;;;;;22.70;59.42;94885.56;5066455;28;20027;-78
2023/07/06 06:42:40;;;;;;;7.85;6.15;;;;;;;22.71;58.96;94878.69;5067864;28;20054;-77
2023/07/06 06:45:06;;;;;;;7.30;6.40;;;;;;;22.76;59.32;94880.69;5067625;28;20361;-77
2023/07/06 06:47:32;;;;;;;8.23;5.90;;;;;;;22.87;59.32;94879.88;5067351;28;20056;-78
2023/07/06 06:49:58;;;;;;;7.55;5.47;;;;;;;22.93;58.40;94866.59;5068640;28;20031;-78
2023/07/06 06:52:25;;;;;;;6.53;5.53;;;;;;;23.03;58.03;94870.63;5065994;28;20024;-78
2023/07/06 06:54:51;;;;;;;6.38;5.47;;;;;;;23.10;58.25;94872.84;5067457;28;20493;-77
2023/07/06 06:57:16;;;;;;;6.47;4.88;;;;;;;23.22;57.95;94865.88;5067125;28;20521;-78
2023/07/06 06:59:43;;;;;;;5.78;5.20;;;;;;;23.24;57.80;94868.19;5067036;28;20131;-78
2023/07/06 07:02:09;;;;;;;9.38;5.68;;;;;;;23.36;57.17;94869.59;5066948;28;20029;-77
2023/07/06 07:04:34;;;;;;;7.20;5.40;;;;;;;23.40;56.74;94867.28;5068305;28;20017;-78
2023/07/06 07:07:03;;;;;;;8.52;5.55;;;;;;;23.46;56.81;94859.56;5066382;28;20032;-78
2023/07/06 07:09:29;;;;;;;8.32;5.40;;;;;;;23.61;56.24;94861.97;5066524;28;20029;-78
2023/07/06 07:11:55;;;;;;;9.95;5.15;;;;;;;23.72;55.42;94872.34;5068088;28;20115;-78
2023/07/06 07:14:20;;;;;;;6.47;4.85;;;;;;;23.78;55.21;94859.03;5066121;28;20071;-77
2023/07/06 07:16:46;;;;;;;7.05;4.85;;;;;;;23.87;55.12;94863.53;5066631;28;20040;-76
2023/07/06 07:19:13;;;;;;;8.00;5.00;;;;;;;23.99;54.86;94859.31;5065547;28;20029;-78
2023/07/06 07:21:38;;;;;;;5.72;4.38;;;;;;;24.04;54.86;94862.06;5068172;28;20505;-78
2023/07/06 07:24:04;;;;;;;7.22;4.78;;;;;;;24.06;54.36;94862.28;5066521;28;20025;-79
2023/07/06 07:26:30;;;;;;;7.70;4.70;;;;;;;24.17;53.42;94861.41;5067638;28;20028;-78
2023/07/06 07:28:56;;;;;;;6.95;4.82;;;;;;;24.25;52.98;94862.31;5068140;28;20029;-79
2023/07/06 07:31:25;;;;;;;5.53;5.00;;;;;;;24.32;53.00;94858.94;5066945;28;20023;-78
2023/07/06 07:33:50;;;;;;;5.18;4.30;;;;;;;24.33;52.69;94851.25;5066456;28;20079;-79
2023/07/06 07:36:17;;;;;;;6.82;5.18;;;;;;;24.47;52.18;94861.31;5048285;28;20567;-78
2023/07/06 07:38:44;;;;;;;5.75;4.78;;;;;;;24.54;52.22;94857.13;5066801;28;20047;-77
2023/07/06 07:41:09;;;;;;;5.65;4.70;;;;;;;24.59;52.46;94857.06;5066842;28;20024;-77
2023/07/06 07:43:38;;;;;;;8.15;4.80;;;;;;;24.66;52.21;94852.09;5066628;28;20036;-77
2023/07/06 07:46:05;;;;;;;5.60;5.05;;;;;;;24.73;51.94;94855.09;5066864;28;20059;-78
2023/07/06 07:48:33;;;;;;;7.72;5.68;;;;;;;24.78;51.34;94854.25;5065466;28;20021;-77
2023/07/06 07:51:01;;;;;;;5.85;4.60;;;;;;;24.85;51.05;94853.63;5049754;28;20025;-78
2023/07/06 07:53:27;;;;;;;7.25;4.55;;;;;;;24.95;51.36;94868.06;5065321;28;20410;-78
2023/07/06 07:55:54;;;;;;;5.55;4.97;;;;;;;25.01;51.18;94860.31;5068219;28;20025;-78
2023/07/06 07:58:22;;;;;;;5.10;4.50;;;;;;;25.08;51.24;94859.69;5065151;28;20028;-78
2023/07/06 08:00:51;;;;;;;7.07;4.97;;;;;;;25.10;50.69;94857.09;5066568;28;20027;-78
2023/07/06 08:03:17;;;;;;;5.63;4.70;;;;;;;25.25;50.66;94865.06;5065083;28;20024;-77
2023/07/06 08:05:44;;;;;;;5.82;4.78;;;;;;;25.36;50.79;94864.13;5067348;28;20032;-78
2023/07/06 08:08:11;;;;;;;5.97;5.10;;;;;;;25.48;50.47;94865.47;5067333;28;20564;-78
2023/07/06 08:10:39;;;;;;;7.80;4.90;;;;;;;25.64;49.96;94860.84;5065943;28;20557;-79
2023/07/06 08:13:06;;;;;;;5.72;5.00;;;;;;;25.65;49.74;94854.66;5066250;28;20020;-77
2023/07/06 08:15:31;;;;;;;5.32;4.82;;;;;;;25.81;49.59;94861.31;5065629;28;20048;-78
2023/07/06 08:18:00;;;;;;;5.97;5.03;;;;;;;25.94;48.64;94866.22;5067359;28;20047;-78
2023/07/06 08:20:29;;;;;;;6.50;4.88;;;;;;;25.95;49.02;94857.22;5066039;28;20027;-78
2023/07/06 08:22:57;;;;;;;5.93;5.18;;;;;;;26.09;49.05;94857.19;5067205;28;20032;-79
2023/07/06 08:25:25;;;;;;;7.45;5.57;;;;;;;26.19;48.19;94847.78;5065614;28;20100;-78
2023/07/06 08:27:51;;;;;;;6.28;5.18;;;;;;;26.15;48.70;94843.75;5069467;28;20499;-77
2023/07/06 08:30:17;;;;;;;6.20;4.63;;;;;;;26.32;48.24;94851.88;5070053;28;20032;-78
2023/07/06 08:32:42;;;;;;;6.72;4.72;;;;;;;26.44;48.21;94853.97;5068633;28;20027;-77
2023/07/06 08:35:08;;;;;;;6.18;4.68;;;;;;;26.55;48.21;94849.38;5071375;28;20070;-77
2023/07/06 08:37:34;;;;;;;7.25;5.15;;;;;;;26.69;48.18;94865.72;5069664;28;20522;-77
2023/07/06 08:39:59;;;;;;;6.65;5.47;;;;;;;26.84;47.39;94858.75;5071101;28;20444;-78
2023/07/06 08:42:25;;;;;;;10.00;4.75;;;;;;;26.98;46.40;94854.59;5070428;28;20405;-78
2023/07/06 08:44:53;;;;;;;6.00;4.53;;;;;;;27.16;45.46;94864.94;5070605;28;20460;-77
2023/07/06 08:47:18;;;;;;;5.53;4.90;;;;;;;27.18;45.25;94851.06;5070913;28;20165;-78
2023/07/06 08:49:44;;;;;;;6.45;4.70;;;;;;;27.33;45.44;94856.09;5067952;28;20597;-77
2023/07/06 08:52:12;;;;;;;5.78;4.18;;;;;;;27.41;44.99;94842.03;5071214;28;20020;-77
2023/07/06 08:54:39;;;;;;;5.88;4.65;;;;;;;27.56;44.28;94853.47;5069060;28;20479;-78
2023/07/06 08:57:16;;;;;;;5.43;4.10;;;;;;;27.62;44.26;94859.72;5052784;28;20020;-77
2023/07/06 08:59:49;;;;;;;5.97;5.13;;;;;;;27.71;44.60;94847.97;5068285;28;20466;-77
2023/07/06 09:02:22;;;;;;;6.47;5.38;;;;;;;27.88;44.22;94852.44;5068733;28;20445;-76
2023/07/06 09:04:50;;;;;;;5.43;4.90;;;;;;;27.87;43.54;94839.59;5070290;28;20029;-78
2023/07/06 09:07:17;;;;;;;6.00;4.82;;;;;;;27.92;43.97;94852.81;5069385;28;20089;-78
2023/07/06 09:09:47;;;;;;;6.10;5.10;;;;;;;28.06;43.48;94857.06;5069182;28;20032;-79
2023/07/06 09:12:31;;;;;;;7.03;5.15;;;;;;;28.14;43.66;94852.22;5068205;28;20028;-77
2023/07/06 09:14:59;;;;;;;5.55;5.05;;;;;;;28.27;42.96;94845.69;5068688;28;20510;-77
2023/07/06 09:17:25;;;;;;;6.85;5.10;;;;;;;28.39;43.57;94860.28;5070240;28;20341;-79
2023/07/06 09:19:56;;;;;;;7.05;5.18;;;;;;;28.52;43.08;94860.94;5069091;28;20050;-78
2023/07/06 09:22:23;;;;;;;9.07;5.10;;;;;;;28.68;43.10;94852.53;5070587;28;20020;-79
2023/07/06 09:24:49;;;;;;;6.90;4.72;;;;;;;28.71;41.99;94845.72;5067504;28;20495;-80
2023/07/06 09:27:28;;;;;;;5.85;4.50;;;;;;;28.81;41.67;94844.63;5069120;28;20024;-78
2023/07/06 09:30:02;;;;;;;6.68;5.18;;;;;;;28.91;41.72;94847.69;5067689;28;20032;-78
2023/07/06 09:32:32;;;;;;;6.13;4.90;;;;;;;29.03;41.86;94834.00;5069745;28;20511;-78
2023/07/06 09:35:08;;;;;;;5.07;4.57;;;;;;;29.18;41.56;94841.72;5068279;28;20078;-78
2023/07/06 09:37:40;;;;;;;7.53;4.35;;;;;;;29.37;40.93;94842.16;5068417;28;20029;-77
2023/07/06 09:40:10;;;;;;;6.45;4.40;;;;;;;29.50;40.10;94830.66;5068753;28;20030;-79
2023/07/06 09:42:35;;;;;;;5.53;4.50;;;;;;;29.66;40.34;94830.69;5069005;28;20029;-79
2023/07/06 09:45:21;;;;;;;7.43;4.75;;;;;;;29.75;39.73;94836.50;5070078;28;20021;-78
2023/07/06 09:47:52;;;;;;;8.23;5.53;;;;;;;29.89;39.84;94846.34;5068224;28;20490;-78
2023/07/06 09:50:21;;;;;;;5.10;4.60;;;;;;;30.05;38.75;94838.56;5067477;28;20107;-78
2023/07/06 09:52:46;;;;;;;4.72;3.97;;;;;;;30.21;38.95;94838.56;5068480;28;20035;-78
2023/07/06 09:55:24;;;;;;;6.20;4.75;;;;;;;30.35;37.95;94837.78;5067185;28;20024;-78
2023/07/06 09:57:50;;;;;;;4.90;4.22;;;;;;;30.45;37.86;94831.50;5068197;28;20029;-78
2023/07/06 10:00:19;;;;;;;4.55;3.90;;;;;;;30.65;37.76;94825.56;5067568;28;20093;-77
2023/07/06 10:02:53;;;;;;;6.13;4.88;;;;;;;30.82;36.60;94824.94;5067742;28;20020;-79
2023/07/06 10:05:42;;;;;;;7.07;5.40;;;;;;;30.94;36.44;94813.91;5068149;28;20086;-78
2023/07/06 10:08:13;;;;;;;5.95;4.38;;;;;;;31.19;36.39;94826.03;5050578;28;20460;-78
2023/07/06 10:10:48;;;;;;;5.63;4.45;;;;;;;31.37;35.33;94821.25;5068292;28;20115;-78
2023/07/06 10:13:29;;;;;;;5.13;4.10;;;;;;;31.58;34.89;94817.28;5067285;28;20491;-78
2023/07/06 10:16:32;;;;;;;4.28;3.88;;;;;;;31.61;35.60;94816.13;5068226;28;20040;-78
2023/07/06 10:19:04;;;;;;;4.60;4.20;;;;;;;31.64;35.59;94814.97;5067916;28;20044;-78
2023/07/06 10:21:45;;;;;;;;;;;;;;;31.65;35.49;94825.00;5067134;28;20037;-78
2023/07/06 10:24:16;;;;;;;6.93;4.00;;;;;;;31.59;35.50;94821.63;5067692;28;20321;-78
2023/07/06 10:26:48;;;;;;;4.28;3.88;;;;;;;31.55;35.29;94824.91;5068945;28;20505;-78
2023/07/06 10:29:18;;;;;;;6.40;4.38;;;;;;;31.57;35.48;94822.22;5066860;28;20025;-77
2023/07/06 10:31:51;;;;;;;4.68;4.18;;;;;;;31.58;35.94;94820.13;5069128;28;20028;-78
2023/07/06 10:34:23;;;;;;;7.18;4.30;;;;;;;31.51;35.53;94824.53;5067669;28;20438;-78
2023/07/06 10:36:49;;;;;;;4.60;3.83;;;;;;;31.53;35.52;94818.28;5069225;28;20036;-78
2023/07/06 10:39:23;;;;;;;4.93;3.92;;;;;;;31.61;35.60;94819.72;5067774;28;20031;-77
2023/07/06 10:41:59;;;;;;;5.28;4.40;;;;;;;31.59;35.07;94813.84;5068307;28;20024;-79
2023/07/06 10:44:40;;;;;;;6.97;3.80;;;;;;;31.55;35.07;94812.78;5068514;28;20029;-78
2023/07/06 10:47:07;;;;;;;5.53;4.25;;;;;;;31.58;35.60;94820.13;5067415;28;20051;-77
2023/07/06 10:50:07;;;;;;;5.63;4.32;;;;;;;31.69;34.65;94822.50;5068202;28;20048;-77
2023/07/06 10:52:43;;;;;;;4.30;3.90;;;;;;;31.80;34.74;94812.78;5068709;28;20028;-77
2023/07/06 10:55:10;;;;;;;4.70;4.20;;;;;;;31.99;34.62;94822.25;5067223;28;20025;-77
2023/07/06 10:57:43;;;;;;;11.00;4.40;;;;;;;31.87;33.69;94814.78;5067558;28;20024;-78
2023/07/06 11:00:15;;;;;;;;;;;;;;;31.79;33.98;94812.00;5066074;28;20498;-78
2023/07/06 11:02:43;;;;;;;6.53;4.68;;;;;;;31.76;34.45;94798.94;5068418;28;19948;-77
2023/07/06 11:05:31;;;;;;;4.43;3.97;;;;;;;31.78;34.80;94796.28;5066934;28;20063;-78
2023/07/06 11:07:59;;;;;;;4.78;4.30;;;;;;;31.82;34.44;94793.03;5067626;28;20040;-78
2023/07/06 11:10:35;;;;;;;8.10;4.25;;;;;;;31.87;34.83;94787.13;5066968;28;20078;-76
2023/07/06 11:13:01;;;;;;;4.72;4.22;;;;;;;31.82;34.75;94787.38;5066820;28;20133;-77
2023/07/06 11:15:29;;;;;;;5.93;4.30;;;;;;;31.73;35.02;94786.66;5068788;28;20052;-78
2023/07/06 11:17:55;;;;;;;4.65;4.18;;;;;;;31.69;34.67;94783.47;5072216;28;20028;-78
2023/07/06 11:20:23;;;;;;;4.60;4.10;;;;;;;31.67;35.18;94782.56;5073889;28;20024;-78
2023/07/06 11:22:54;;;;;;;5.55;4.70;;;;;;;31.67;34.75;94786.16;5067811;28;20029;-78
2023/07/06 11:25:20;;;;;;;4.90;4.40;;;;;;;31.53;35.30;94787.78;5066016;28;20035;-77
2023/07/06 11:27:48;;;;;;;6.47;4.40;;;;;;;31.55;34.90;94790.06;5068091;28;20111;-78
2023/07/06 11:30:31;;;;;;;4.35;3.90;;;;;;;31.46;35.68;94791.44;5065528;28;20032;-77
2023/07/06 11:33:10;;;;;;;;;;;;;;;31.21;35.97;94782.91;5067407;28;20020;-77
2023/07/06 11:36:00;;;;;;;7.00;4.30;;;;;;;31.12;35.96;94781.44;5065470;28;19967;-77
2023/07/06 11:38:45;;;;;;;6.22;4.63;;;;;;;31.11;35.89;94790.53;5065828;28;20111;-77
2023/07/06 11:41:26;;;;;;;5.07;4.57;;;;;;;31.06;36.29;94797.19;5066510;28;20024;-78
2023/07/06 11:44:06;;;;;;;5.28;4.75;;;;;;;30.99;36.36;94803.66;5066935;28;20127;-78
2023/07/06 11:46:55;;;;;;;6.00;5.32;;;;;;;30.85;36.87;94809.63;5067572;28;20047;-78
2023/07/06 11:49:41;;;;;;;6.60;4.80;;;;;;;30.60;36.40;94812.34;5067441;28;20055;-78
2023/07/06 11:52:15;;;;;;;4.78;3.58;;;;;;;30.37;36.10;94808.84;5066259;28;20035;-78
2023/07/06 11:54:54;;;;;;;6.95;4.20;;;;;;;30.01;37.33;94823.28;5066242;28;20017;-78